Time;durP1;ratioP1;P1;durP2;ratioP2;P2;SDS_P1;SDS_P2;PMS_P1;PMS_P2;Temp;Humidity;BMP_temperature;BMP_pressure;BME280_temperature;BME280_humidity;BME280_pressure;Samples;Min_cycle;Max_cycle;Signal;HPM_P1;HPM_P2
2023/03/17 00:00:18;;;;;;;;;;;9.30;99.90;;;;;;5005122;28;19918;-62
2023/03/17 00:02:45;;;;;;;;;;;9.20;99.90;;;;;;5010405;28;20023;-62
2023/03/17 00:05:16;;;;;;;;;;;9.20;99.90;;;;;;5008936;28;19968;-62
2023/03/17 00:07:41;;;;;;;;;;;9.10;99.90;;;;;;5002848;28;19910;-61
2023/03/17 00:10:16;;;;;;;;;;;9.10;99.90;;;;;;5005537;28;19929;-61
2023/03/17 00:12:42;;;;;;;;;;;9.10;99.90;;;;;;5009200;28;19917;-62
2023/03/17 00:15:08;;;;;;;;;;;9.00;99.90;;;;;;5006248;28;20002;-63
2023/03/17 00:17:35;;;;;;;;;;;9.00;99.90;;;;;;5003707;28;19910;-62
2023/03/17 00:20:01;;;;;;;;;;;9.00;99.90;;;;;;5006073;28;20004;-62
2023/03/17 00:22:27;;;;;;;;;;;9.00;99.90;;;;;;5007814;28;19967;-62
2023/03/17 00:24:52;;;;;;;;;;;8.90;99.90;;;;;;5008021;28;19921;-62
2023/03/17 00:27:18;;;;;;;;;;;8.90;99.90;;;;;;5004003;28;19913;-63
2023/03/17 00:29:43;;;;;;;;;;;8.90;99.90;;;;;;5003496;28;19972;-62
2023/03/17 00:32:14;;;;;;;;;;;8.80;99.90;;;;;;5005646;28;20380;-60
2023/03/17 00:34:40;;;;;;;;;;;8.80;99.90;;;;;;5007772;28;19917;-59
2023/03/17 00:37:08;;;;;;;;;;;8.80;99.90;;;;;;5007042;28;20093;-64
2023/03/17 00:39:33;;;;;;;;;;;8.80;99.90;;;;;;5005618;28;19914;-61
2023/03/17 00:41:59;;;;;;;;;;;8.70;99.90;;;;;;5007653;28;20511;-62
2023/03/17 00:44:25;;;;;;;;;;;8.70;99.90;;;;;;5006300;28;20387;-63
2023/03/17 00:46:51;;;;;;;;;;;8.70;99.90;;;;;;5001546;28;20009;-62
2023/03/17 00:49:19;;;;;;;;;;;8.60;99.90;;;;;;5006112;28;20016;-62
2023/03/17 00:51:45;;;;;;;;;;;8.60;99.90;;;;;;5001095;28;20038;-63
2023/03/17 00:54:11;;;;;;;;;;;8.50;99.90;;;;;;5006317;28;19917;-62
2023/03/17 00:56:37;;;;;;;;;;;8.40;99.90;;;;;;5007529;28;20004;-63
2023/03/17 00:59:04;;;;;;;;;;;8.40;99.90;;;;;;5007753;28;19913;-63
2023/03/17 01:01:29;;;;;;;;;;;8.40;99.90;;;;;;5005770;28;19913;-62
2023/03/17 01:03:55;;;;;;;;;;;8.30;99.90;;;;;;5010622;28;20021;-62
2023/03/17 01:06:20;;;;;;;;;;;8.30;99.90;;;;;;5005963;28;19925;-63
2023/03/17 01:08:46;;;;;;;;;;;8.30;99.90;;;;;;5004826;28;19917;-63
2023/03/17 01:11:13;;;;;;;;;;;8.30;99.90;;;;;;5004685;28;20029;-61
2023/03/17 01:13:39;;;;;;;;;;;8.30;99.90;;;;;;5010235;28;19921;-62
2023/03/17 01:16:08;;;;;;;;;;;8.30;99.90;;;;;;5008142;28;19914;-62
2023/03/17 01:18:34;;;;;;;;;;;8.30;99.90;;;;;;5004928;28;20543;-63
2023/03/17 01:20:59;;;;;;;;;;;8.30;99.90;;;;;;5006924;28;20011;-63
2023/03/17 01:23:25;;;;;;;;;;;8.30;99.90;;;;;;5007262;28;20271;-63
2023/03/17 01:25:50;;;;;;;;;;;8.30;99.90;;;;;;5007189;28;19917;-62
2023/03/17 01:28:17;;;;;;;;;;;8.30;99.90;;;;;;5010427;28;20047;-61
2023/03/17 01:30:43;;;;;;;;;;;8.30;99.90;;;;;;5011421;28;19921;-63
2023/03/17 01:33:10;;;;;;;;;;;8.30;99.90;;;;;;5012141;28;20473;-63
2023/03/17 01:35:37;;;;;;;;;;;8.20;99.90;;;;;;5010078;28;19921;-61
2023/03/17 01:38:03;;;;;;;;;;;8.10;99.90;;;;;;5004047;28;19914;-60
2023/03/17 01:40:30;;;;;;;;;;;8.10;99.90;;;;;;5008502;28;20457;-62
2023/03/17 01:43:04;;;;;;;;;;;8.10;99.90;;;;;;5010671;28;20371;-62
2023/03/17 01:45:48;;;;;;;;;;;8.10;99.90;;;;;;5007332;28;19914;-63
2023/03/17 01:48:14;;;;;;;;;;;8.00;99.90;;;;;;5004896;28;19917;-62
2023/03/17 01:50:40;;;;;;;;;;;7.90;99.90;;;;;;5010301;28;19913;-60
2023/03/17 01:53:06;;;;;;;;;;;8.00;99.90;;;;;;5009380;28;19918;-62
2023/03/17 01:55:31;;;;;;;;;;;7.90;99.90;;;;;;5008587;28;20383;-62
2023/03/17 01:57:57;;;;;;;;;;;8.00;99.90;;;;;;5006003;28;19913;-62
2023/03/17 02:00:23;;;;;;;;;;;7.90;99.90;;;;;;5010345;28;19964;-62
2023/03/17 02:02:54;;;;;;;;;;;8.00;99.90;;;;;;5005981;28;20012;-63
2023/03/17 02:05:21;;;;;;;;;;;7.90;99.90;;;;;;4992876;28;19914;-63
2023/03/17 02:07:47;;;;;;;;;;;7.90;99.90;;;;;;5012111;28;19945;-63
2023/03/17 02:10:14;;;;;;;;;;;7.90;99.90;;;;;;5009552;28;20371;-63
2023/03/17 02:12:41;;;;;;;;;;;7.90;99.90;;;;;;5005874;28;19923;-62
2023/03/17 02:15:07;;;;;;;;;;;7.80;99.90;;;;;;5011895;28;19913;-62
2023/03/17 02:17:32;;;;;;;;;;;7.80;99.90;;;;;;5012321;28;21739;-63
2023/03/17 02:20:11;;;;;;;;;;;7.80;99.90;;;;;;5008639;28;20004;-62
2023/03/17 02:22:37;;;;;;;;;;;7.80;99.90;;;;;;5012170;28;19913;-63
2023/03/17 02:25:03;;;;;;;;;;;7.80;99.90;;;;;;5009621;28;20453;-61
2023/03/17 02:27:34;;;;;;;;;;;7.80;99.90;;;;;;5010404;28;19937;-62
2023/03/17 02:29:59;;;;;;;;;;;7.70;99.90;;;;;;5011133;28;20455;-62
2023/03/17 02:32:25;;;;;;;;;;;7.70;99.90;;;;;;5009497;28;20012;-63
2023/03/17 02:34:51;;;;;;;;;;;7.70;99.90;;;;;;5011346;28;20458;-61
2023/03/17 02:37:16;;;;;;;;;;;7.70;99.90;;;;;;5012192;28;19914;-62
2023/03/17 02:39:42;;;;;;;;;;;7.70;99.90;;;;;;5009929;28;20327;-61
2023/03/17 02:42:08;;;;;;;;;;;7.70;99.90;;;;;;5009442;28;19913;-61
2023/03/17 02:44:33;;;;;;;;;;;7.70;99.90;;;;;;5011534;28;19921;-63
2023/03/17 02:46:59;;;;;;;;;;;7.70;99.90;;;;;;5008790;28;19967;-63
2023/03/17 02:49:26;;;;;;;;;;;7.60;99.90;;;;;;5010439;28;19917;-62
2023/03/17 02:51:52;;;;;;;;;;;7.60;99.90;;;;;;5010115;28;19913;-63
2023/03/17 02:54:17;;;;;;;;;;;7.60;99.90;;;;;;5008756;28;19925;-62
2023/03/17 02:56:42;;;;;;;;;;;7.60;99.90;;;;;;5009846;28;20024;-63
2023/03/17 02:59:08;;;;;;;;;;;7.60;99.90;;;;;;5009762;28;19950;-62
2023/03/17 03:01:34;;;;;;;;;;;7.50;99.90;;;;;;5009911;28;20088;-63
2023/03/17 03:04:00;;;;;;;;;;;7.40;99.90;;;;;;5009428;28;19918;-62
2023/03/17 03:06:25;;;;;;;;;;;7.40;99.90;;;;;;5008452;28;19918;-63
2023/03/17 03:08:51;;;;;;;;;;;7.40;99.90;;;;;;5009000;28;19961;-62
2023/03/17 03:11:17;;;;;;;;;;;7.40;99.90;;;;;;5011469;28;20379;-62
2023/03/17 03:13:42;;;;;;;;;;;7.40;99.90;;;;;;5012120;28;20004;-62
2023/03/17 03:16:08;;;;;;;;;;;7.40;99.90;;;;;;5010579;28;20511;-62
2023/03/17 03:18:34;;;;;;;;;;;7.40;99.90;;;;;;5010818;28;19927;-63
2023/03/17 03:21:00;;;;;;;;;;;7.30;99.90;;;;;;5008617;28;19920;-62
2023/03/17 03:23:26;;;;;;;;;;;7.30;99.90;;;;;;5008472;28;20303;-62
2023/03/17 03:25:51;;;;;;;;;;;7.30;99.90;;;;;;5007484;28;19979;-62
2023/03/17 03:28:17;;;;;;;;;;;7.40;99.90;;;;;;5010924;28;19960;-62
2023/03/17 03:30:43;;;;;;;;;;;7.40;99.90;;;;;;5008601;28;19921;-62
2023/03/17 03:33:10;;;;;;;;;;;7.30;99.90;;;;;;5008819;28;19913;-62
2023/03/17 03:35:35;;;;;;;;;;;7.20;99.90;;;;;;5007951;28;19913;-63
2023/03/17 03:38:01;;;;;;;;;;;7.20;99.90;;;;;;5006762;28;19924;-62
2023/03/17 03:40:26;;;;;;;;;;;7.20;99.90;;;;;;5004339;28;19964;-62
2023/03/17 03:42:52;;;;;;;;;;;7.20;99.90;;;;;;5007892;28;20016;-62
2023/03/17 03:45:17;;;;;;;;;;;7.20;99.90;;;;;;5008150;28;20371;-62
2023/03/17 03:47:43;;;;;;;;;;;7.20;99.90;;;;;;5007157;28;20380;-62
2023/03/17 03:50:09;;;;;;;;;;;7.20;99.90;;;;;;5009286;28;19930;-62
2023/03/17 03:52:35;;;;;;;;;;;7.20;99.90;;;;;;5006500;28;19913;-61
2023/03/17 03:55:00;;;;;;;;;;;7.20;99.90;;;;;;5007947;28;19933;-62
2023/03/17 03:57:26;;;;;;;;;;;7.20;99.90;;;;;;5006595;28;19913;-61
2023/03/17 03:59:51;;;;;;;;;;;7.20;99.90;;;;;;5007535;28;19960;-62
2023/03/17 04:02:17;;;;;;;;;;;7.20;99.90;;;;;;5006895;28;19914;-61
2023/03/17 04:04:43;;;;;;;;;;;7.20;99.90;;;;;;5005949;28;19913;-63
2023/03/17 04:07:08;;;;;;;;;;;7.20;99.90;;;;;;5009159;28;19921;-62
2023/03/17 04:09:34;;;;;;;;;;;7.20;99.90;;;;;;5008882;28;19926;-62
2023/03/17 04:12:00;;;;;;;;;;;7.20;99.90;;;;;;5008667;28;20303;-62
2023/03/17 04:14:26;;;;;;;;;;;7.30;99.90;;;;;;5009597;28;19925;-62
2023/03/17 04:16:51;;;;;;;;;;;7.40;99.90;;;;;;5010554;28;20451;-63
2023/03/17 04:19:16;;;;;;;;;;;7.40;99.90;;;;;;5009924;28;20423;-61
2023/03/17 04:21:42;;;;;;;;;;;7.40;99.90;;;;;;5009499;28;19937;-63
2023/03/17 04:24:08;;;;;;;;;;;7.40;99.90;;;;;;5010325;28;20012;-63
2023/03/17 04:26:33;;;;;;;;;;;7.40;99.90;;;;;;5008652;28;19913;-63
2023/03/17 04:28:59;;;;;;;;;;;7.30;99.90;;;;;;5009276;28;19922;-63
2023/03/17 04:31:24;;;;;;;;;;;7.30;99.90;;;;;;5009680;28;19917;-62
2023/03/17 04:33:50;;;;;;;;;;;7.20;99.90;;;;;;5009699;28;20375;-62
2023/03/17 04:36:18;;;;;;;;;;;7.30;99.90;;;;;;5008695;28;19917;-62
2023/03/17 04:38:43;;;;;;;;;;;7.30;99.90;;;;;;5000426;28;19960;-63
2023/03/17 04:41:09;;;;;;;;;;;7.20;99.90;;;;;;5009774;28;19949;-62
2023/03/17 04:43:34;;;;;;;;;;;7.30;99.90;;;;;;5005625;28;19957;-62
2023/03/17 04:46:00;;;;;;;;;;;7.30;99.90;;;;;;5007538;28;20303;-63
2023/03/17 04:48:25;;;;;;;;;;;7.30;99.90;;;;;;5009560;28;19914;-63
2023/03/17 04:50:51;;;;;;;;;;;7.20;99.90;;;;;;5008308;28;20450;-62
2023/03/17 04:53:16;;;;;;;;;;;7.20;99.90;;;;;;5009052;28;19986;-62
2023/03/17 04:55:42;;;;;;;;;;;7.20;99.90;;;;;;5007881;28;19917;-63
2023/03/17 04:58:07;;;;;;;;;;;7.30;99.90;;;;;;5006184;28;19975;-62
2023/03/17 05:00:37;;;;;;;;;;;7.30;99.90;;;;;;5008010;28;19913;-62
2023/03/17 05:03:04;;;;;;;;;;;7.20;99.90;;;;;;5000879;28;19914;-62
2023/03/17 05:05:30;;;;;;;;;;;7.20;99.90;;;;;;5005933;28;19921;-63
2023/03/17 05:07:55;;;;;;;;;;;7.20;99.90;;;;;;5005599;28;20365;-63
2023/03/17 05:10:20;;;;;;;;;;;7.20;99.90;;;;;;5005896;28;20367;-63
2023/03/17 05:12:46;;;;;;;;;;;7.10;99.90;;;;;;5007625;28;19937;-63
2023/03/17 05:15:12;;;;;;;;;;;7.20;99.90;;;;;;5008265;28;19972;-61
2023/03/17 05:17:37;;;;;;;;;;;7.20;99.90;;;;;;5005931;28;19921;-63
2023/03/17 05:20:03;;;;;;;;;;;7.10;99.90;;;;;;5008484;28;19910;-62
2023/03/17 05:22:28;;;;;;;;;;;7.10;99.90;;;;;;5003817;28;19913;-61
2023/03/17 05:24:54;;;;;;;;;;;7.10;99.90;;;;;;4986468;28;19925;-63
2023/03/17 05:27:20;;;;;;;;;;;7.20;99.90;;;;;;5007436;28;19937;-63
2023/03/17 05:29:46;;;;;;;;;;;7.10;99.90;;;;;;5006727;28;20023;-63
2023/03/17 05:32:12;;;;;;;;;;;7.10;99.90;;;;;;5005360;28;19917;-62
2023/03/17 05:34:37;;;;;;;;;;;7.20;99.90;;;;;;5005736;28;20385;-63
2023/03/17 05:37:03;;;;;;;;;;;7.20;99.90;;;;;;5004870;28;19913;-62
2023/03/17 05:39:28;;;;;;;;;;;7.30;99.90;;;;;;5007303;28;20016;-62
2023/03/17 05:41:54;;;;;;;;;;;7.30;99.90;;;;;;5004376;28;20295;-62
2023/03/17 05:44:19;;;;;;;;;;;7.20;99.90;;;;;;5009767;28;19913;-62
2023/03/17 05:46:45;;;;;;;;;;;7.20;99.90;;;;;;5003858;28;19924;-62
2023/03/17 05:49:11;;;;;;;;;;;7.30;99.90;;;;;;5006843;28;19921;-63
2023/03/17 05:51:37;;;;;;;;;;;7.30;99.90;;;;;;5007306;28;19913;-62
2023/03/17 05:54:02;;;;;;;;;;;7.30;99.90;;;;;;5005598;28;19914;-63
2023/03/17 05:56:32;;;;;;;;;;;7.30;99.90;;;;;;5007080;28;19920;-62
2023/03/17 05:58:58;;;;;;;;;;;7.30;99.90;;;;;;5004082;28;19921;-59
2023/03/17 06:01:24;;;;;;;;;;;7.40;99.90;;;;;;5004555;28;19913;-59
2023/03/17 06:03:50;;;;;;;;;;;7.30;99.90;;;;;;5007436;28;19922;-59
2023/03/17 06:06:15;;;;;;;;;;;7.30;99.90;;;;;;5004854;28;20410;-59
2023/03/17 06:08:41;;;;;;;;;;;7.40;99.90;;;;;;5006315;28;19922;-55
2023/03/17 06:11:07;;;;;;;;;;;7.40;99.90;;;;;;5005153;28;19949;-58
2023/03/17 06:13:32;;;;;;;;;;;7.40;99.90;;;;;;5011927;28;19936;-59
2023/03/17 06:15:57;;;;;;;;;;;7.40;99.90;;;;;;5012143;28;20387;-57
2023/03/17 06:18:23;;;;;;;;;;;7.40;99.90;;;;;;5009528;28;19914;-58
2023/03/17 06:20:48;;;;;;;;;;;7.50;99.90;;;;;;5009805;28;19928;-58
2023/03/17 06:23:14;;;;;;;;;;;7.50;99.90;;;;;;5008336;28;19956;-60
2023/03/17 06:25:40;;;;;;;;;;;7.50;99.90;;;;;;5011273;28;19917;-60
2023/03/17 06:28:05;;;;;;;;;;;7.60;99.90;;;;;;5008973;28;19926;-60
2023/03/17 06:30:31;;;;;;;;;;;7.60;99.90;;;;;;5010244;28;19917;-60
2023/03/17 06:32:57;;;;;;;;;;;7.60;99.90;;;;;;5004837;28;20379;-60
2023/03/17 06:35:23;;;;;;;;;;;7.70;99.90;;;;;;5002701;28;20299;-60
2023/03/17 06:37:49;;;;;;;;;;;7.80;99.90;;;;;;5007379;28;19913;-60
2023/03/17 06:40:15;;;;;;;;;;;7.80;99.90;;;;;;5011574;28;19910;-61
2023/03/17 06:42:40;;;;;;;;;;;7.80;99.90;;;;;;5009531;28;19997;-57
2023/03/17 06:45:08;;;;;;;;;;;7.90;99.90;;;;;;5011219;28;19920;-58
2023/03/17 06:47:36;;;;;;;;;;;7.90;99.90;;;;;;5008002;28;19918;-57
2023/03/17 06:50:02;;;;;;;;;;;7.90;99.90;;;;;;5003888;28;19989;-59
2023/03/17 06:52:28;;;;;;;;;;;7.90;99.90;;;;;;5008557;28;19936;-59
2023/03/17 06:54:53;;;;;;;;;;;8.00;99.90;;;;;;5007655;28;19913;-60
2023/03/17 06:57:19;;;;;;;;;;;8.00;99.90;;;;;;5011380;28;19920;-60
2023/03/17 06:59:45;;;;;;;;;;;8.10;99.90;;;;;;5012284;28;20371;-58
2023/03/17 07:02:10;;;;;;;;;;;8.10;99.90;;;;;;5012310;28;19920;-59
2023/03/17 07:04:37;;;;;;;;;;;8.10;99.90;;;;;;5007820;28;19921;-60
2023/03/17 07:07:05;;;;;;;;;;;8.20;99.90;;;;;;5009144;28;19968;-60
2023/03/17 07:09:33;;;;;;;;;;;8.20;99.90;;;;;;5000309;28;19925;-59
2023/03/17 07:12:03;;;;;;;;;;;8.20;99.90;;;;;;5006303;28;19943;-58
2023/03/17 07:14:32;;;;;;;;;;;8.30;99.90;;;;;;5010953;28;19959;-59
2023/03/17 07:16:58;;;;;;;;;;;8.30;99.90;;;;;;5008899;28;19917;-59
2023/03/17 07:19:25;;;;;;;;;;;8.40;99.90;;;;;;5011781;28;19913;-61
2023/03/17 07:21:50;;;;;;;;;;;8.40;99.90;;;;;;5011489;28;19967;-61
2023/03/17 07:24:16;;;;;;;;;;;8.40;99.90;;;;;;5007332;28;20566;-59
2023/03/17 07:26:42;;;;;;;;;;;8.50;99.90;;;;;;5009289;28;19914;-60
2023/03/17 07:29:08;;;;;;;;;;;8.50;99.90;;;;;;5005523;28;19959;-61
2023/03/17 07:31:37;;;;;;;;;;;8.60;99.90;;;;;;5010650;28;19917;-57
2023/03/17 07:34:03;;;;;;;;;;;8.70;99.90;;;;;;5009070;28;20378;-61
2023/03/17 07:36:29;;;;;;;;;;;8.70;99.90;;;;;;5008722;28;20336;-61
2023/03/17 07:38:54;;;;;;;;;;;8.80;99.90;;;;;;5012150;28;19913;-60
2023/03/17 07:41:21;;;;;;;;;;;8.90;99.90;;;;;;5012264;28;19914;-60
2023/03/17 07:43:46;;;;;;;;;;;9.00;99.90;;;;;;5010719;28;19917;-61
2023/03/17 07:46:12;;;;;;;;;;;9.10;99.90;;;;;;5009293;28;19989;-60
2023/03/17 07:48:40;;;;;;;;;;;9.10;99.90;;;;;;5009799;28;19925;-61
2023/03/17 07:51:13;;;;;;;;;;;9.30;99.90;;;;;;5012250;28;20001;-60
2023/03/17 07:53:38;;;;;;;;;;;9.30;99.90;;;;;;5000844;28;20510;-60
2023/03/17 07:56:04;;;;;;;;;;;9.50;99.90;;;;;;5011213;28;19913;-61
2023/03/17 07:58:30;;;;;;;;;;;9.60;99.90;;;;;;5005087;28;19980;-60
2023/03/17 08:00:56;;;;;;;;;;;9.70;99.90;;;;;;5010426;28;20000;-60
2023/03/17 08:03:22;;;;;;;;;;;9.80;99.90;;;;;;5009362;28;20331;-61
2023/03/17 08:05:59;;;;;;;;;;;9.90;99.90;;;;;;5010941;28;19953;-60
2023/03/17 08:08:26;;;;;;;;;;;10.00;99.90;;;;;;5010051;28;20351;-59
2023/03/17 08:10:51;;;;;;;;;;;10.00;99.90;;;;;;5011357;28;19917;-60
2023/03/17 08:13:17;;;;;;;;;;;10.10;99.90;;;;;;5009519;28;19921;-57
2023/03/17 08:15:43;;;;;;;;;;;10.20;99.90;;;;;;5010082;28;20427;-61
2023/03/17 08:18:08;;;;;;;;;;;10.20;99.90;;;;;;5008730;28;20367;-60
2023/03/17 08:20:35;;;;;;;;;;;10.30;99.90;;;;;;5009928;28;20454;-61
2023/03/17 08:23:01;;;;;;;;;;;10.40;99.90;;;;;;5006427;28;19918;-61
2023/03/17 08:25:27;;;;;;;;;;;10.50;99.90;;;;;;5006994;28;19975;-60
2023/03/17 08:27:52;;;;;;;;;;;10.60;99.90;;;;;;5010979;28;20399;-60
2023/03/17 08:30:19;;;;;;;;;;;10.70;99.90;;;;;;5010848;28;19968;-60
2023/03/17 08:32:45;;;;;;;;;;;10.80;99.90;;;;;;5007448;28;20419;-60
2023/03/17 08:35:14;;;;;;;;;;;10.90;99.90;;;;;;5005369;28;19914;-62
2023/03/17 08:37:43;;;;;;;;;;;11.10;99.90;;;;;;5005965;28;19910;-58
2023/03/17 08:40:12;;;;;;;;;;;11.20;99.90;;;;;;5012457;28;19917;-59
2023/03/17 08:42:37;;;;;;;;;;;11.40;99.90;;;;;;5010334;28;19921;-59
2023/03/17 08:45:05;;;;;;;;;;;11.50;99.90;;;;;;5010254;28;20439;-59
2023/03/17 08:47:31;;;;;;;;;;;11.70;99.90;;;;;;5012591;28;20280;-59
2023/03/17 08:49:59;;;;;;;;;;;11.90;99.90;;;;;;5012184;28;20379;-58
2023/03/17 08:52:26;;;;;;;;;;;12.00;99.90;;;;;;5011849;28;20367;-59
2023/03/17 08:54:52;;;;;;;;;;;12.10;99.90;;;;;;5004721;28;19918;-59
2023/03/17 08:57:18;;;;;;;;;;;12.20;99.90;;;;;;5010639;28;19932;-59
2023/03/17 08:59:43;;;;;;;;;;;12.30;99.90;;;;;;5005661;28;19913;-59
2023/03/17 09:02:13;;;;;;;;;;;12.30;99.90;;;;;;5010874;28;19925;-59
2023/03/17 09:04:40;;;;;;;;;;;12.40;99.90;;;;;;5007247;28;19921;-60
2023/03/17 09:07:05;;;;;;;;;;;12.50;99.90;;;;;;5008093;28;19913;-60
2023/03/17 09:09:32;;;;;;;;;;;12.50;99.90;;;;;;5001702;28;20012;-59
2023/03/17 09:11:57;;;;;;;;;;;12.60;99.90;;;;;;5009977;28;19917;-58
2023/03/17 09:14:23;;;;;;;;;;;12.60;99.90;;;;;;5003661;28;19917;-59
2023/03/17 09:16:49;;;;;;;;;;;12.60;99.90;;;;;;5010134;28;20100;-58
2023/03/17 09:19:16;;;;;;;;;;;12.70;99.90;;;;;;5011603;28;19910;-58
2023/03/17 09:21:42;;;;;;;;;;;12.80;99.90;;;;;;5011644;28;19909;-60
2023/03/17 09:24:08;;;;;;;;;;;12.80;99.90;;;;;;5009521;28;20000;-60
2023/03/17 09:26:34;;;;;;;;;;;12.90;99.90;;;;;;5006272;28;19913;-60
2023/03/17 09:28:59;;;;;;;;;;;13.00;99.90;;;;;;5002093;28;19917;-59
2023/03/17 09:31:26;;;;;;;;;;;13.10;99.90;;;;;;5009293;28;19975;-57
2023/03/17 09:33:51;;;;;;;;;;;13.10;99.90;;;;;;5007409;28;19976;-52
2023/03/17 09:36:17;;;;;;;;;;;13.20;99.90;;;;;;5010585;28;20016;-57
2023/03/17 09:38:42;;;;;;;;;;;13.30;99.90;;;;;;5001219;28;19925;-52
2023/03/17 09:41:22;;;;;;;;;;;13.40;99.90;;;;;;5004532;28;20463;-58
2023/03/17 09:43:56;;;;;;;;;;;13.40;99.90;;;;;;5006904;28;19914;-56
2023/03/17 09:46:31;;;;;;;;;;;13.50;99.90;;;;;;5010545;28;20280;-57
2023/03/17 09:49:07;;;;;;;;;;;13.60;99.90;;;;;;5012430;28;19924;-56
2023/03/17 09:51:33;;;;;;;;;;;13.60;99.90;;;;;;5014173;28;19971;-53
2023/03/17 09:54:03;;;;;;;;;;;13.70;99.90;;;;;;5012223;28;19939;-58
2023/03/17 09:56:32;;;;;;;;;;;13.80;99.90;;;;;;5006298;28;19929;-58
2023/03/17 09:58:57;;;;;;;;;;;13.90;99.90;;;;;;5012150;28;19914;-57
2023/03/17 10:01:23;;;;;;;;;;;14.10;99.90;;;;;;5013058;28;20008;-59
2023/03/17 10:03:49;;;;;;;;;;;14.20;99.90;;;;;;5009447;28;19976;-60
2023/03/17 10:06:35;;;;;;;;;;;14.30;99.90;;;;;;5008663;28;20380;-60
2023/03/17 10:09:01;;;;;;;;;;;;;;;;;;5016378;28;19921;-58
2023/03/17 10:11:36;;;;;;;;;;;14.40;99.90;;;;;;5020006;28;19913;-60
2023/03/17 10:14:03;;;;;;;;;;;14.40;99.90;;;;;;5009188;28;20012;-59
2023/03/17 10:16:29;;;;;;;;;;;;;;;;;;5013738;28;19968;-60
2023/03/17 10:18:55;;;;;;;;;;;;;;;;;;5018707;28;19909;-59
2023/03/17 10:21:24;;;;;;;;;;;14.50;99.90;;;;;;5022666;28;19917;-59
2023/03/17 10:23:50;;;;;;;;;;;;;;;;;;5009965;28;19914;-58
2023/03/17 10:26:16;;;;;;;;;;;;;;;;;;5007255;28;19921;-58
2023/03/17 10:28:42;;;;;;;;;;;;;;;;;;5016710;28;19917;-58
2023/03/17 10:31:08;;;;;;;;;;;;;;;;;;5016858;28;19921;-58
2023/03/17 10:33:33;;;;;;;;;;;;;;;;;;5006273;28;19909;-59
2023/03/17 10:35:59;;;;;;;;;;;;;;;;;;5008664;28;19910;-56
2023/03/17 10:38:25;;;;;;;;;;;;;;;;;;5014553;28;19996;-57
2023/03/17 10:40:51;;;;;;;;;;;;;;;;;;5019863;28;19913;-57
2023/03/17 10:43:17;;;;;;;;;;;;;;;;;;5019073;28;19916;-60
2023/03/17 10:45:43;;;;;;;;;;;;;;;;;;5012428;28;19916;-55
2023/03/17 10:48:09;;;;;;;;;;;;;;;;;;5009506;28;20384;-58
2023/03/17 10:50:35;;;;;;;;;;;;;;;;;;5018337;28;19920;-61
2023/03/17 10:53:01;;;;;;;;;;;;;;;;;;5018506;28;19909;-59
2023/03/17 10:55:28;;;;;;;;;;;;;;;;;;5013550;28;20597;-59
2023/03/17 10:57:54;;;;;;;;;;;;;;;;;;5012711;28;20063;-59
2023/03/17 11:00:19;;;;;;;;;;;14.80;99.90;;;;;;5013208;28;20407;-59
2023/03/17 11:02:52;;;;;;;;;;;15.20;99.90;;;;;;5010639;28;19964;-58
2023/03/17 11:05:21;;;;;;;;;;;15.30;99.90;;;;;;5008786;28;20014;-59
2023/03/17 11:07:47;;;;;;;;;;;15.40;99.90;;;;;;4999643;28;19910;-59
2023/03/17 11:10:15;;;;;;;;;;;15.70;99.90;;;;;;5016406;28;20008;-60
2023/03/17 11:12:41;;;;;;;;;;;15.90;99.90;;;;;;5024853;28;19909;-60
2023/03/17 11:15:13;;;;;;;;;;;16.30;99.90;;;;;;5011407;28;19920;-59
2023/03/17 11:17:41;;;;;;;;;;;16.20;99.90;;;;;;5010983;28;20349;-58
2023/03/17 11:20:16;;;;;;;;;;;16.30;99.90;;;;;;5011828;28;20305;-57
2023/03/17 11:22:46;;;;;;;;;;;16.30;99.90;;;;;;5024216;28;19955;-56
2023/03/17 11:25:18;;;;;;;;;;;16.40;99.90;;;;;;5016337;28;19918;-58
2023/03/17 11:27:47;;;;;;;;;;;16.20;99.90;;;;;;5002466;28;20009;-58
2023/03/17 11:30:26;;;;;;;;;;;16.10;99.90;;;;;;5004485;28;19933;-59
2023/03/17 11:32:56;;;;;;;;;;;15.90;99.90;;;;;;5008139;28;19945;-60
2023/03/17 11:35:31;;;;;;;;;;;15.60;99.90;;;;;;5019774;28;19920;-59
2023/03/17 11:38:00;;;;;;;;;;;15.60;99.90;;;;;;5014126;28;20008;-60
2023/03/17 11:40:32;;;;;;;;;;;15.80;99.90;;;;;;5008393;28;20268;-60
2023/03/17 11:43:02;;;;;;;;;;;16.20;99.90;;;;;;5014432;28;19913;-59
2023/03/17 11:45:32;;;;;;;;;;;16.40;99.90;;;;;;4999270;28;19996;-61
2023/03/17 11:48:16;;;;;;;;;;;16.70;99.90;;;;;;5011438;28;19976;-59
2023/03/17 11:50:41;;;;;;;;;;;16.90;99.90;;;;;;5005145;28;19960;-59
2023/03/17 11:53:26;;;;;;;;;;;17.00;99.90;;;;;;5014019;28;19909;-57
2023/03/17 11:56:03;;;;;;;;;;;17.30;99.90;;;;;;5019583;28;19989;-61
2023/03/17 11:58:34;;;;;;;;;;;17.40;99.90;;;;;;5009084;28;20434;-59
2023/03/17 12:01:00;;;;;;;;;;;17.30;99.90;;;;;;5012632;28;19917;-59
2023/03/17 12:03:44;;;;;;;;;;;17.40;99.90;;;;;;5017303;28;19914;-58
2023/03/17 12:06:29;;;;;;;;;;;17.50;99.90;;;;;;5015310;28;19909;-60
2023/03/17 12:08:59;;;;;;;;;;;17.50;99.90;;;;;;5000908;28;19917;-59
2023/03/17 12:11:27;;;;;;;;;;;17.40;99.90;;;;;;5007925;28;19917;-59
2023/03/17 12:14:19;;;;;;;;;;;17.40;99.90;;;;;;5003520;28;19957;-56
2023/03/17 12:16:58;;;;;;;;;;;17.30;99.90;;;;;;5009492;28;20384;-60
2023/03/17 12:19:26;;;;;;;;;;;17.50;99.90;;;;;;5022074;28;19917;-60
2023/03/17 12:21:55;;;;;;;;;;;17.40;99.90;;;;;;5017816;28;19956;-57
2023/03/17 12:24:24;;;;;;;;;;;17.50;99.90;;;;;;5017985;28;20295;-58
2023/03/17 12:26:56;;;;;;;;;;;17.50;99.90;;;;;;5007950;28;19910;-57
2023/03/17 12:29:24;;;;;;;;;;;17.70;99.90;;;;;;5002774;28;19960;-59
2023/03/17 12:32:09;;;;;;;;;;;17.70;99.90;;;;;;5005778;28;19968;-59
2023/03/17 12:34:41;;;;;;;;;;;17.80;99.90;;;;;;5002143;28;20382;-59
2023/03/17 12:37:07;;;;;;;;;;;17.70;99.90;;;;;;5005654;28;19913;-61
2023/03/17 12:39:33;;;;;;;;;;;17.70;99.90;;;;;;5008426;28;19920;-60
2023/03/17 12:42:00;;;;;;;;;;;17.80;99.90;;;;;;5004604;28;19914;-60
2023/03/17 12:44:35;;;;;;;;;;;18.00;99.90;;;;;;5004569;28;19914;-59
2023/03/17 12:47:07;;;;;;;;;;;17.90;99.90;;;;;;5011536;28;19919;-60
2023/03/17 12:49:42;;;;;;;;;;;18.00;99.90;;;;;;5006645;28;20011;-61
2023/03/17 12:52:16;;;;;;;;;;;18.10;99.90;;;;;;5003516;28;19970;-57
2023/03/17 12:54:45;;;;;;;;;;;18.20;99.90;;;;;;5008746;28;19913;-60
2023/03/17 12:57:16;;;;;;;;;;;18.20;99.90;;;;;;5001597;28;19932;-61
2023/03/17 12:59:42;;;;;;;;;;;18.20;99.90;;;;;;5005592;28;20346;-58
2023/03/17 13:02:16;;;;;;;;;;;18.20;99.90;;;;;;5006602;28;20047;-61
2023/03/17 13:04:59;;;;;;;;;;;18.30;99.90;;;;;;5006212;28;19913;-60
2023/03/17 13:07:43;;;;;;;;;;;18.00;99.90;;;;;;5004104;28;20388;-61
2023/03/17 13:10:17;;;;;;;;;;;18.40;99.90;;;;;;5000496;28;20433;-58
2023/03/17 13:12:43;;;;;;;;;;;18.50;99.90;;;;;;5000892;28;19944;-58
2023/03/17 13:15:24;;;;;;;;;;;18.70;99.90;;;;;;5003604;28;19914;-59
2023/03/17 13:18:08;;;;;;;;;;;18.60;99.90;;;;;;5007220;28;19914;-57
2023/03/17 13:20:39;;;;;;;;;;;18.50;99.90;;;;;;5006372;28;20024;-60
2023/03/17 13:23:10;;;;;;;;;;;18.60;99.90;;;;;;5011105;28;19977;-59
2023/03/17 13:25:40;;;;;;;;;;;18.40;99.90;;;;;;5009007;28;19960;-59
2023/03/17 13:28:11;;;;;;;;;;;18.30;99.90;;;;;;5013954;28;19913;-60
2023/03/17 13:30:37;;;;;;;;;;;18.30;99.90;;;;;;5013687;28;19921;-59
2023/03/17 13:33:08;;;;;;;;;;;17.90;99.90;;;;;;4988889;28;20442;-59
2023/03/17 13:35:41;;;;;;;;;;;18.10;99.90;;;;;;5005428;28;21985;-58
2023/03/17 13:38:26;;;;;;;;;;;18.20;99.90;;;;;;5004668;28;20464;-60
2023/03/17 13:40:51;;;;;;;;;;;18.40;99.90;;;;;;5002962;28;19913;-60
2023/03/17 13:43:28;;;;;;;;;;;18.20;99.90;;;;;;5007404;28;19921;-60
2023/03/17 13:45:54;;;;;;;;;;;18.30;99.90;;;;;;5007017;28;20020;-58
2023/03/17 13:48:31;;;;;;;;;;;18.30;99.90;;;;;;5002062;28;19987;-61
2023/03/17 13:51:06;;;;;;;;;;;18.40;99.90;;;;;;5007573;28;20113;-60
2023/03/17 13:53:34;;;;;;;;;;;18.60;99.90;;;;;;5005113;28;19936;-60
2023/03/17 13:56:06;;;;;;;;;;;18.60;99.90;;;;;;5008838;28;19913;-60
2023/03/17 13:58:33;;;;;;;;;;;18.70;99.90;;;;;;5005778;28;20368;-60
2023/03/17 14:01:01;;;;;;;;;;;19.00;99.90;;;;;;5007803;28;19988;-60
2023/03/17 14:03:36;;;;;;;;;;;18.80;99.90;;;;;;5009369;28;19968;-59
2023/03/17 14:06:04;;;;;;;;;;;18.70;99.90;;;;;;5012032;28;20536;-60
2023/03/17 14:08:30;;;;;;;;;;;18.70;99.90;;;;;;5010777;28;19920;-59
2023/03/17 14:10:58;;;;;;;;;;;18.80;99.90;;;;;;5012094;28;19913;-60
2023/03/17 14:13:28;;;;;;;;;;;18.80;99.90;;;;;;5010840;28;20511;-61
2023/03/17 14:16:13;;;;;;;;;;;18.50;99.90;;;;;;5010324;28;19953;-60
2023/03/17 14:18:40;;;;;;;;;;;18.40;99.90;;;;;;5010278;28;19920;-60
2023/03/17 14:21:17;;;;;;;;;;;18.20;99.90;;;;;;5013604;28;19920;-60
2023/03/17 14:23:51;;;;;;;;;;;17.90;99.90;;;;;;5007908;28;19921;-56
2023/03/17 14:26:16;;;;;;;;;;;17.70;99.90;;;;;;5011118;28;19917;-61
2023/03/17 14:28:41;;;;;;;;;;;17.80;99.90;;;;;;5008525;28;19918;-60
2023/03/17 14:31:18;;;;;;;;;;;17.70;99.90;;;;;;5005881;28;19914;-60
2023/03/17 14:33:44;;;;;;;;;;;17.60;99.90;;;;;;5001467;28;19937;-62